createdAt,value
2023-03-06T00:02:07.157Z,100.00
2023-03-06T00:07:08.628Z,100.00
2023-03-06T00:12:09.953Z,100.00
2023-03-06T00:17:13.071Z,100.00
2023-03-06T00:22:14.991Z,100.00
2023-03-06T00:27:16.325Z,100.00
2023-03-06T00:32:17.673Z,100.00
2023-03-06T00:37:19.440Z,100.00
2023-03-06T00:42:20.867Z,100.00
2023-03-06T00:47:22.163Z,100.00
2023-03-06T00:52:23.690Z,100.00
2023-03-06T00:57:25.100Z,100.00
2023-03-06T01:02:26.436Z,100.00
2023-03-06T01:07:28.512Z,100.00
2023-03-06T01:12:29.862Z,100.00
2023-03-06T01:17:31.163Z,100.00
2023-03-06T01:22:32.500Z,100.00
2023-03-06T01:27:33.827Z,100.00
2023-03-06T01:32:35.249Z,100.00
2023-03-06T01:37:37.310Z,100.00
2023-03-06T01:42:38.827Z,100.00
2023-03-06T01:47:40.287Z,100.00
2023-03-06T01:52:52.922Z,100.00
2023-03-06T01:57:57.599Z,100.00
2023-03-06T02:03:06.512Z,100.00
2023-03-06T02:08:09.459Z,100.00
2023-03-06T02:13:10.766Z,100.00
2023-03-06T02:18:12.140Z,100.00
2023-03-06T02:23:29.993Z,100.00
2023-03-06T02:28:31.338Z,100.00
2023-03-06T02:33:32.998Z,100.00
2023-03-06T02:38:37.340Z,100.00
2023-03-06T02:43:39.755Z,100.00
2023-03-06T02:48:41.050Z,100.00
2023-03-06T02:53:42.336Z,100.00
2023-03-06T02:58:43.700Z,100.00
2023-03-06T03:03:45.260Z,100.00
2023-03-06T03:08:46.570Z,100.00
2023-03-06T03:13:47.868Z,100.00
2023-03-06T03:18:50.958Z,100.00
2023-03-06T03:23:52.286Z,100.00
2023-03-06T03:28:53.574Z,100.00
2023-03-06T03:33:54.866Z,100.00
2023-03-06T03:38:57.631Z,100.00
2023-03-06T03:43:59.080Z,100.00
2023-03-06T03:49:00.734Z,100.00
2023-03-06T03:54:02.563Z,100.00
2023-03-06T03:59:03.862Z,100.00
2023-03-06T04:04:05.338Z,100.00
2023-03-06T04:09:06.916Z,100.00
2023-03-06T04:14:09.733Z,100.00
2023-03-06T04:19:11.675Z,100.00
2023-03-06T04:24:13.072Z,100.00
2023-03-06T04:29:14.386Z,100.00
2023-03-06T04:34:15.687Z,100.00
2023-03-06T04:39:16.997Z,100.00
2023-03-06T04:44:18.300Z,100.00
2023-03-06T04:49:19.635Z,100.00
2023-03-06T04:54:20.936Z,100.00
2023-03-06T04:59:22.239Z,100.00
2023-03-06T05:04:23.542Z,100.00
2023-03-06T05:09:24.908Z,100.00
2023-03-06T05:14:28.707Z,100.00
2023-03-06T05:19:30.090Z,100.00
2023-03-06T05:24:31.453Z,100.00
2023-03-06T05:29:32.829Z,100.00
2023-03-06T05:34:34.138Z,100.00
2023-03-06T05:39:35.559Z,100.00
2023-03-06T05:44:37.967Z,100.00
2023-03-06T05:49:39.407Z,100.00
2023-03-06T05:54:40.726Z,100.00
2023-03-06T05:59:43.214Z,100.00
2023-03-06T06:04:44.820Z,100.00
2023-03-06T06:09:46.326Z,100.00
2023-03-06T06:14:47.639Z,100.00
2023-03-06T06:19:49.157Z,100.00
2023-03-06T06:24:50.454Z,100.00
2023-03-06T06:29:52.549Z,100.00
2023-03-06T06:34:53.969Z,100.00
2023-03-06T06:39:55.315Z,100.00
2023-03-06T06:44:56.631Z,100.00
2023-03-06T06:49:58.000Z,100.00
2023-03-06T06:54:59.335Z,100.00
2023-03-06T07:00:00.645Z,100.00
2023-03-06T07:05:04.953Z,100.00
2023-03-06T07:10:08.243Z,100.00
2023-03-06T07:15:12.478Z,100.00
2023-03-06T07:20:13.994Z,100.00
2023-03-06T07:25:15.722Z,100.00
2023-03-06T07:30:17.158Z,100.00
2023-03-06T07:35:20.425Z,100.00
2023-03-06T07:40:22.742Z,100.00
2023-03-06T07:45:24.371Z,100.00
2023-03-06T07:50:26.076Z,100.00
2023-03-06T07:55:27.675Z,100.00
2023-03-06T08:00:29.012Z,100.00
2023-03-06T08:05:30.427Z,100.00
2023-03-06T08:10:31.774Z,100.00
2023-03-06T08:15:33.073Z,100.00
2023-03-06T08:20:34.399Z,100.00
2023-03-06T08:25:36.133Z,100.00
2023-03-06T08:30:37.431Z,100.00
2023-03-06T08:35:39.041Z,100.00
2023-03-06T08:40:40.443Z,100.00
2023-03-06T08:45:41.842Z,100.00
2023-03-06T08:50:43.147Z,99.57
2023-03-06T08:55:44.738Z,97.82
2023-03-06T09:00:46.522Z,98.37
2023-03-06T09:05:47.928Z,95.73
2023-03-06T09:10:49.308Z,96.65
2023-03-06T09:15:50.655Z,95.71
2023-03-06T09:20:51.980Z,94.93
2023-03-06T09:25:53.809Z,92.36
2023-03-06T09:30:55.205Z,91.70
2023-03-06T09:35:56.640Z,88.73
2023-03-06T09:40:58.115Z,85.07
2023-03-06T09:45:59.547Z,86.75
2023-03-06T09:51:07.415Z,84.52
2023-03-06T09:56:16.290Z,85.89
2023-03-06T10:01:26.823Z,83.52
2023-03-06T10:06:30.676Z,81.23
2023-03-06T10:11:50.614Z,80.63
2023-03-06T10:16:51.990Z,79.70
2023-03-06T10:21:59.341Z,79.50
2023-03-06T10:27:16.845Z,77.59
2023-03-06T10:32:42.827Z,80.77
2023-03-06T10:37:49.520Z,80.33
2023-03-06T10:42:58.777Z,77.20
2023-03-06T10:48:11.892Z,78.14
2023-03-06T10:53:26.552Z,76.95
2023-03-06T10:58:27.870Z,74.15
2023-03-06T11:03:29.504Z,71.92
2023-03-06T11:08:31.248Z,72.70
2023-03-06T11:13:36.527Z,68.31
2023-03-06T11:18:42.741Z,61.39
2023-03-06T11:23:45.673Z,63.51
2023-03-06T11:28:47.053Z,62.65
2023-03-06T11:33:51.188Z,64.63
2023-03-06T11:38:53.967Z,66.17
2023-03-06T11:44:04.549Z,67.28
2023-03-06T11:49:22.102Z,68.25
2023-03-06T11:54:23.648Z,66.17
2023-03-06T11:59:43.609Z,67.59
2023-03-06T12:04:57.294Z,66.71
2023-03-06T12:10:01.684Z,64.52
2023-03-06T12:15:19.388Z,63.34
2023-03-06T12:20:20.721Z,63.49
2023-03-06T12:25:22.355Z,64.37
2023-03-06T12:30:29.486Z,62.09
2023-03-06T12:35:48.227Z,61.45
2023-03-06T12:41:08.103Z,62.25
2023-03-06T12:46:12.386Z,60.87
2023-03-06T12:51:16.860Z,59.58
2023-03-06T12:56:18.933Z,60.85
2023-03-06T13:01:38.873Z,60.97
2023-03-06T13:06:58.838Z,62.82
2023-03-06T13:12:09.827Z,60.71
2023-03-06T13:17:34.295Z,60.61
2023-03-06T13:22:35.758Z,61.25
2023-03-06T13:27:52.670Z,60.88
2023-03-06T13:32:55.006Z,62.87
2023-03-06T13:37:56.808Z,62.09
2023-03-06T13:43:06.990Z,63.22
2023-03-06T13:48:42.729Z,61.94
2023-03-06T13:53:44.690Z,61.44
2023-03-06T13:59:04.934Z,61.16
2023-03-06T14:04:12.300Z,61.95
2023-03-06T14:09:18.893Z,61.79
2023-03-06T14:14:27.916Z,61.41
2023-03-06T14:19:31.239Z,62.28
2023-03-06T14:24:38.164Z,62.56
2023-03-06T14:29:39.475Z,64.35
2023-03-06T14:34:45.439Z,64.84
2023-03-06T14:39:46.924Z,65.82
2023-03-06T14:44:49.207Z,65.02
2023-03-06T14:50:09.581Z,66.66
2023-03-06T14:55:12.083Z,65.28
2023-03-06T15:00:17.290Z,67.60
2023-03-06T15:05:21.697Z,69.48
2023-03-06T15:10:24.578Z,70.26
2023-03-06T15:15:27.452Z,72.09
2023-03-06T15:20:42.805Z,73.74
2023-03-06T15:25:55.181Z,75.32
2023-03-06T15:31:04.081Z,73.41
2023-03-06T15:36:06.409Z,75.80
2023-03-06T15:41:20.709Z,75.08
2023-03-06T15:46:22.020Z,75.20
2023-03-06T15:51:23.388Z,77.54
2023-03-06T15:56:28.527Z,77.79
2023-03-06T16:01:29.922Z,79.34
2023-03-06T16:06:31.276Z,80.76
2023-03-06T16:11:43.292Z,81.30
2023-03-06T16:16:45.162Z,82.86
2023-03-06T16:21:46.552Z,82.01
2023-03-06T16:26:50.782Z,81.77
2023-03-06T16:31:52.252Z,81.02
2023-03-06T16:36:53.548Z,83.42
2023-03-06T16:41:55.153Z,81.54
2023-03-06T16:46:59.948Z,80.10
2023-03-06T16:52:01.261Z,80.82
2023-03-06T16:57:02.585Z,80.65
2023-03-06T17:02:03.918Z,83.43
2023-03-06T17:07:05.228Z,82.08
2023-03-06T17:12:06.675Z,83.02
2023-03-06T17:17:08.000Z,82.25
2023-03-06T17:22:09.298Z,82.32
2023-03-06T17:27:10.769Z,85.12
2023-03-06T17:32:12.422Z,85.95
2023-03-06T17:37:13.817Z,85.62
2023-03-06T17:42:15.548Z,84.65
2023-03-06T17:47:16.872Z,85.90
2023-03-06T17:52:18.201Z,86.51
2023-03-06T17:57:19.493Z,87.62
2023-03-06T18:02:20.812Z,85.55
2023-03-06T18:07:22.437Z,85.08
2023-03-06T18:12:23.771Z,86.43
2023-03-06T18:17:25.127Z,84.86
2023-03-06T18:22:26.489Z,85.63
2023-03-06T18:27:27.802Z,85.72
2023-03-06T18:32:29.177Z,87.54
2023-03-06T18:37:30.559Z,87.11
2023-03-06T18:42:31.862Z,87.49
2023-03-06T18:47:33.693Z,91.80
2023-03-06T18:52:35.041Z,93.83
2023-03-06T18:57:36.407Z,95.54
2023-03-06T19:02:37.727Z,90.96
2023-03-06T19:07:39.031Z,91.48
2023-03-06T19:12:40.337Z,93.11
2023-03-06T19:17:41.634Z,94.22
2023-03-06T19:22:42.928Z,93.54
2023-03-06T19:27:45.978Z,94.66
2023-03-06T19:32:47.397Z,86.84
2023-03-06T19:37:48.767Z,79.39
2023-03-06T19:42:50.768Z,78.11
2023-03-06T19:47:55.386Z,76.02
2023-03-06T19:52:57.419Z,77.96
2023-03-06T19:57:58.743Z,76.12
2023-03-06T20:03:00.117Z,74.53
2023-03-06T20:08:01.468Z,74.68
2023-03-06T20:13:02.742Z,74.84
2023-03-06T20:18:05.791Z,75.21
2023-03-06T20:23:07.077Z,75.32
2023-03-06T20:28:08.381Z,76.02
2023-03-06T20:33:09.673Z,76.52
2023-03-06T20:38:11.214Z,77.36
2023-03-06T20:43:12.509Z,77.31
2023-03-06T20:48:13.804Z,77.68
2023-03-06T20:53:15.116Z,77.89
2023-03-06T20:58:16.639Z,77.18
2023-03-06T21:03:17.966Z,77.44
2023-03-06T21:08:19.303Z,76.93
2023-03-06T21:13:20.619Z,77.39
2023-03-06T21:18:21.911Z,77.04
2023-03-06T21:23:23.213Z,77.65
2023-03-06T21:28:24.888Z,77.02
2023-03-06T21:33:26.344Z,76.52
2023-03-06T21:38:27.727Z,76.45
2023-03-06T21:43:29.036Z,77.14
2023-03-06T21:48:30.653Z,77.67
2023-03-06T21:53:32.201Z,77.40
2023-03-06T21:58:33.577Z,78.13
2023-03-06T22:03:34.913Z,77.02
2023-03-06T22:08:36.371Z,78.05
2023-03-06T22:13:38.036Z,79.25
2023-03-06T22:18:39.413Z,78.67
2023-03-06T22:23:40.833Z,77.58
2023-03-06T22:28:42.181Z,78.18
2023-03-06T22:33:43.478Z,78.58
2023-03-06T22:38:46.141Z,79.06
2023-03-06T22:43:47.688Z,78.24
2023-03-06T22:48:49.122Z,78.88
2023-03-06T22:53:50.676Z,79.66
2023-03-06T22:58:52.160Z,79.91
2023-03-06T23:03:54.900Z,80.58
2023-03-06T23:09:00.824Z,80.20
2023-03-06T23:14:02.327Z,80.31
2023-03-06T23:19:04.387Z,80.42
2023-03-06T23:24:06.842Z,81.56
2023-03-06T23:29:08.138Z,82.02
2023-03-06T23:34:11.448Z,82.25
2023-03-06T23:39:12.808Z,82.31
2023-03-06T23:44:14.135Z,82.70
2023-03-06T23:49:15.450Z,84.12
2023-03-06T23:54:18.178Z,83.39
2023-03-06T23:59:19.501Z,83.25
